sensor_id;sensor_type;location;lat;lon;timestamp;P1;durP1;ratioP1;P2;durP2;ratioP2
46713;SDS011;32445;51.376;10.874;2022-11-23T00:00:35;6.85;;;6.22;;
46713;SDS011;32445;51.376;10.874;2022-11-23T00:03:35;8.27;;;7.55;;
46713;SDS011;32445;51.376;10.874;2022-11-23T00:06:36;6.80;;;6.05;;
46713;SDS011;32445;51.376;10.874;2022-11-23T00:09:36;11.02;;;6.15;;
46713;SDS011;32445;51.376;10.874;2022-11-23T00:12:37;10.50;;;6.70;;
46713;SDS011;32445;51.376;10.874;2022-11-23T00:15:39;7.72;;;5.13;;
46713;SDS011;32445;51.376;10.874;2022-11-23T00:18:39;9.27;;;6.15;;
46713;SDS011;32445;51.376;10.874;2022-11-23T00:21:40;7.35;;;6.57;;
46713;SDS011;32445;51.376;10.874;2022-11-23T00:24:40;8.85;;;5.72;;
46713;SDS011;32445;51.376;10.874;2022-11-23T00:27:40;9.00;;;6.15;;
46713;SDS011;32445;51.376;10.874;2022-11-23T00:30:41;6.40;;;5.80;;
46713;SDS011;32445;51.376;10.874;2022-11-23T00:33:42;9.25;;;5.38;;
46713;SDS011;32445;51.376;10.874;2022-11-23T00:36:42;6.43;;;5.27;;
46713;SDS011;32445;51.376;10.874;2022-11-23T00:39:43;7.03;;;6.35;;
46713;SDS011;32445;51.376;10.874;2022-11-23T00:42:43;7.18;;;5.30;;
46713;SDS011;32445;51.376;10.874;2022-11-23T00:45:43;10.85;;;6.10;;
46713;SDS011;32445;51.376;10.874;2022-11-23T00:48:45;9.70;;;5.97;;
46713;SDS011;32445;51.376;10.874;2022-11-23T00:51:47;7.32;;;5.80;;
46713;SDS011;32445;51.376;10.874;2022-11-23T00:54:47;9.98;;;5.72;;
46713;SDS011;32445;51.376;10.874;2022-11-23T00:57:47;7.05;;;6.13;;
46713;SDS011;32445;51.376;10.874;2022-11-23T01:00:48;5.38;;;4.88;;
46713;SDS011;32445;51.376;10.874;2022-11-23T01:03:49;7.47;;;5.45;;
46713;SDS011;32445;51.376;10.874;2022-11-23T01:06:54;9.90;;;6.95;;
46713;SDS011;32445;51.376;10.874;2022-11-23T01:09:56;5.20;;;4.80;;
46713;SDS011;32445;51.376;10.874;2022-11-23T01:12:57;5.97;;;4.78;;
46713;SDS011;32445;51.376;10.874;2022-11-23T01:15:57;5.78;;;5.22;;
46713;SDS011;32445;51.376;10.874;2022-11-23T01:18:59;6.17;;;4.03;;
46713;SDS011;32445;51.376;10.874;2022-11-23T01:22:07;6.03;;;5.43;;
46713;SDS011;32445;51.376;10.874;2022-11-23T01:25:08;5.70;;;4.72;;
46713;SDS011;32445;51.376;10.874;2022-11-23T01:28:08;5.30;;;4.80;;
46713;SDS011;32445;51.376;10.874;2022-11-23T01:31:10;5.00;;;4.50;;
46713;SDS011;32445;51.376;10.874;2022-11-23T01:34:15;6.07;;;4.22;;
46713;SDS011;32445;51.376;10.874;2022-11-23T01:37:15;6.40;;;5.03;;
46713;SDS011;32445;51.376;10.874;2022-11-23T01:40:16;5.95;;;5.05;;
46713;SDS011;32445;51.376;10.874;2022-11-23T01:43:17;6.07;;;4.70;;
46713;SDS011;32445;51.376;10.874;2022-11-23T01:46:18;5.43;;;4.88;;
46713;SDS011;32445;51.376;10.874;2022-11-23T01:49:19;4.53;;;4.13;;
46713;SDS011;32445;51.376;10.874;2022-11-23T01:52:21;7.50;;;5.88;;
46713;SDS011;32445;51.376;10.874;2022-11-23T01:55:23;5.05;;;4.65;;
46713;SDS011;32445;51.376;10.874;2022-11-23T01:58:26;4.85;;;4.53;;
46713;SDS011;32445;51.376;10.874;2022-11-23T02:01:30;6.82;;;4.15;;
46713;SDS011;32445;51.376;10.874;2022-11-23T02:04:32;6.22;;;4.43;;
46713;SDS011;32445;51.376;10.874;2022-11-23T02:07:35;5.95;;;4.72;;
46713;SDS011;32445;51.376;10.874;2022-11-23T02:10:37;5.80;;;5.30;;
46713;SDS011;32445;51.376;10.874;2022-11-23T02:13:37;5.55;;;4.97;;
46713;SDS011;32445;51.376;10.874;2022-11-23T02:16:37;5.78;;;5.28;;
46713;SDS011;32445;51.376;10.874;2022-11-23T02:26:30;5.78;;;5.25;;
46713;SDS011;32445;51.376;10.874;2022-11-23T02:29:33;6.40;;;4.45;;
46713;SDS011;32445;51.376;10.874;2022-11-23T02:32:33;8.07;;;5.25;;
46713;SDS011;32445;51.376;10.874;2022-11-23T02:35:34;6.63;;;5.40;;
46713;SDS011;32445;51.376;10.874;2022-11-23T02:38:35;6.68;;;5.88;;
46713;SDS011;32445;51.376;10.874;2022-11-23T02:41:36;5.63;;;5.22;;
46713;SDS011;32445;51.376;10.874;2022-11-23T02:48:09;8.07;;;4.85;;
46713;SDS011;32445;51.376;10.874;2022-11-23T02:51:09;5.63;;;5.05;;
46713;SDS011;32445;51.376;10.874;2022-11-23T02:54:10;10.40;;;5.72;;
46713;SDS011;32445;51.376;10.874;2022-11-23T02:57:11;6.07;;;5.55;;
46713;SDS011;32445;51.376;10.874;2022-11-23T03:00:11;7.43;;;4.70;;
46713;SDS011;32445;51.376;10.874;2022-11-23T03:03:12;5.70;;;4.65;;
46713;SDS011;32445;51.376;10.874;2022-11-23T03:06:12;5.95;;;3.92;;
46713;SDS011;32445;51.376;10.874;2022-11-23T03:09:13;6.30;;;4.63;;
46713;SDS011;32445;51.376;10.874;2022-11-23T03:12:13;6.25;;;5.65;;
46713;SDS011;32445;51.376;10.874;2022-11-23T03:15:15;7.15;;;5.28;;
46713;SDS011;32445;51.376;10.874;2022-11-23T03:18:15;8.43;;;5.03;;
46713;SDS011;32445;51.376;10.874;2022-11-23T03:21:15;7.85;;;5.75;;
46713;SDS011;32445;51.376;10.874;2022-11-23T03:24:16;7.90;;;5.40;;
46713;SDS011;32445;51.376;10.874;2022-11-23T03:27:17;5.57;;;5.07;;
46713;SDS011;32445;51.376;10.874;2022-11-23T03:30:17;5.68;;;5.15;;
46713;SDS011;32445;51.376;10.874;2022-11-23T03:33:18;4.63;;;4.30;;
46713;SDS011;32445;51.376;10.874;2022-11-23T03:36:19;5.70;;;4.47;;
46713;SDS011;32445;51.376;10.874;2022-11-23T03:39:19;6.40;;;4.07;;
46713;SDS011;32445;51.376;10.874;2022-11-23T03:42:20;6.35;;;4.78;;
46713;SDS011;32445;51.376;10.874;2022-11-23T03:45:20;5.82;;;4.57;;
46713;SDS011;32445;51.376;10.874;2022-11-23T03:48:20;7.13;;;4.60;;
46713;SDS011;32445;51.376;10.874;2022-11-23T03:51:21;8.85;;;4.95;;
46713;SDS011;32445;51.376;10.874;2022-11-23T03:54:22;3.80;;;3.50;;
46713;SDS011;32445;51.376;10.874;2022-11-23T03:57:22;4.35;;;3.95;;
46713;SDS011;32445;51.376;10.874;2022-11-23T04:00:22;4.25;;;3.83;;
46713;SDS011;32445;51.376;10.874;2022-11-23T04:03:23;6.95;;;4.28;;
46713;SDS011;32445;51.376;10.874;2022-11-23T04:06:23;5.07;;;3.80;;
46713;SDS011;32445;51.376;10.874;2022-11-23T04:09:23;5.40;;;4.72;;
46713;SDS011;32445;51.376;10.874;2022-11-23T04:12:24;5.00;;;4.63;;
46713;SDS011;32445;51.376;10.874;2022-11-23T04:15:25;7.10;;;6.03;;
46713;SDS011;32445;51.376;10.874;2022-11-23T04:18:25;6.00;;;5.45;;
46713;SDS011;32445;51.376;10.874;2022-11-23T04:21:25;6.57;;;4.32;;
46713;SDS011;32445;51.376;10.874;2022-11-23T04:24:26;4.15;;;3.95;;
46713;SDS011;32445;51.376;10.874;2022-11-23T04:27:26;4.35;;;4.05;;
46713;SDS011;32445;51.376;10.874;2022-11-23T04:30:26;4.38;;;3.97;;
46713;SDS011;32445;51.376;10.874;2022-11-23T04:33:27;5.18;;;4.40;;
46713;SDS011;32445;51.376;10.874;2022-11-23T04:36:27;4.63;;;4.30;;
46713;SDS011;32445;51.376;10.874;2022-11-23T04:39:28;5.60;;;4.57;;
46713;SDS011;32445;51.376;10.874;2022-11-23T04:42:28;5.50;;;4.85;;
46713;SDS011;32445;51.376;10.874;2022-11-23T04:45:29;7.07;;;5.18;;
46713;SDS011;32445;51.376;10.874;2022-11-23T04:48:29;5.78;;;5.00;;
46713;SDS011;32445;51.376;10.874;2022-11-23T04:51:31;4.78;;;4.38;;
46713;SDS011;32445;51.376;10.874;2022-11-23T04:54:31;5.10;;;4.60;;
46713;SDS011;32445;51.376;10.874;2022-11-23T04:57:31;7.88;;;4.75;;
46713;SDS011;32445;51.376;10.874;2022-11-23T05:00:32;5.13;;;4.72;;
46713;SDS011;32445;51.376;10.874;2022-11-23T05:03:32;3.85;;;3.55;;
46713;SDS011;32445;51.376;10.874;2022-11-23T05:06:35;5.93;;;5.43;;
46713;SDS011;32445;51.376;10.874;2022-11-23T05:09:36;5.25;;;4.80;;
46713;SDS011;32445;51.376;10.874;2022-11-23T05:12:36;5.20;;;4.53;;
46713;SDS011;32445;51.376;10.874;2022-11-23T05:15:36;4.97;;;4.55;;
46713;SDS011;32445;51.376;10.874;2022-11-23T05:18:37;4.97;;;4.32;;
46713;SDS011;32445;51.376;10.874;2022-11-23T05:21:37;4.75;;;4.30;;
46713;SDS011;32445;51.376;10.874;2022-11-23T05:24:37;4.38;;;3.97;;
46713;SDS011;32445;51.376;10.874;2022-11-23T05:27:38;4.97;;;4.60;;
46713;SDS011;32445;51.376;10.874;2022-11-23T05:30:38;4.63;;;4.22;;
46713;SDS011;32445;51.376;10.874;2022-11-23T05:33:38;6.50;;;5.00;;
46713;SDS011;32445;51.376;10.874;2022-11-23T05:36:39;5.72;;;5.05;;
46713;SDS011;32445;51.376;10.874;2022-11-23T05:39:39;4.63;;;4.15;;
46713;SDS011;32445;51.376;10.874;2022-11-23T05:42:40;4.38;;;3.63;;
46713;SDS011;32445;51.376;10.874;2022-11-23T05:45:40;6.55;;;4.03;;
46713;SDS011;32445;51.376;10.874;2022-11-23T05:48:40;4.32;;;4.03;;
46713;SDS011;32445;51.376;10.874;2022-11-23T05:51:41;4.57;;;4.28;;
46713;SDS011;32445;51.376;10.874;2022-11-23T05:54:41;4.85;;;4.50;;
46713;SDS011;32445;51.376;10.874;2022-11-23T05:57:41;6.53;;;4.10;;
46713;SDS011;32445;51.376;10.874;2022-11-23T06:00:42;6.82;;;5.53;;
46713;SDS011;32445;51.376;10.874;2022-11-23T06:03:42;5.30;;;4.80;;
46713;SDS011;32445;51.376;10.874;2022-11-23T06:06:43;6.43;;;5.80;;
46713;SDS011;32445;51.376;10.874;2022-11-23T06:09:43;6.43;;;5.03;;
46713;SDS011;32445;51.376;10.874;2022-11-23T06:12:43;3.55;;;3.25;;
46713;SDS011;32445;51.376;10.874;2022-11-23T06:15:44;5.10;;;4.60;;
46713;SDS011;32445;51.376;10.874;2022-11-23T06:18:45;4.63;;;4.10;;
46713;SDS011;32445;51.376;10.874;2022-11-23T06:21:45;6.53;;;4.97;;
46713;SDS011;32445;51.376;10.874;2022-11-23T06:24:46;4.15;;;3.85;;
46713;SDS011;32445;51.376;10.874;2022-11-23T06:27:55;7.05;;;4.50;;
46713;SDS011;32445;51.376;10.874;2022-11-23T06:31:00;5.78;;;3.90;;
46713;SDS011;32445;51.376;10.874;2022-11-23T06:34:02;7.82;;;4.95;;
46713;SDS011;32445;51.376;10.874;2022-11-23T06:37:02;5.07;;;4.78;;
46713;SDS011;32445;51.376;10.874;2022-11-23T06:40:03;5.55;;;4.40;;
46713;SDS011;32445;51.376;10.874;2022-11-23T06:43:03;4.75;;;4.35;;
46713;SDS011;32445;51.376;10.874;2022-11-23T06:46:04;7.32;;;5.03;;
46713;SDS011;32445;51.376;10.874;2022-11-23T06:49:05;7.63;;;5.65;;
46713;SDS011;32445;51.376;10.874;2022-11-23T06:52:06;4.90;;;4.55;;
46713;SDS011;32445;51.376;10.874;2022-11-23T06:55:06;6.53;;;5.82;;
46713;SDS011;32445;51.376;10.874;2022-11-23T06:58:07;12.93;;;7.07;;
46713;SDS011;32445;51.376;10.874;2022-11-23T07:01:08;8.50;;;6.50;;
46713;SDS011;32445;51.376;10.874;2022-11-23T07:04:09;6.18;;;5.68;;
46713;SDS011;32445;51.376;10.874;2022-11-23T07:07:09;8.07;;;6.68;;
46713;SDS011;32445;51.376;10.874;2022-11-23T07:10:09;12.30;;;8.02;;
46713;SDS011;32445;51.376;10.874;2022-11-23T07:13:10;11.20;;;9.00;;
46713;SDS011;32445;51.376;10.874;2022-11-23T07:16:11;15.90;;;10.27;;
46713;SDS011;32445;51.376;10.874;2022-11-23T07:19:11;14.85;;;10.05;;
46713;SDS011;32445;51.376;10.874;2022-11-23T07:22:11;9.73;;;8.82;;
46713;SDS011;32445;51.376;10.874;2022-11-23T07:25:12;13.85;;;10.38;;
46713;SDS011;32445;51.376;10.874;2022-11-23T07:28:17;13.00;;;11.20;;
46713;SDS011;32445;51.376;10.874;2022-11-23T07:31:18;8.05;;;7.30;;
46713;SDS011;32445;51.376;10.874;2022-11-23T07:34:18;12.85;;;9.13;;
46713;SDS011;32445;51.376;10.874;2022-11-23T07:37:18;9.57;;;8.68;;
46713;SDS011;32445;51.376;10.874;2022-11-23T07:40:19;14.98;;;10.85;;
46713;SDS011;32445;51.376;10.874;2022-11-23T07:43:19;15.05;;;11.15;;
46713;SDS011;32445;51.376;10.874;2022-11-23T07:46:20;16.65;;;11.70;;
46713;SDS011;32445;51.376;10.874;2022-11-23T07:49:20;9.27;;;8.48;;
46713;SDS011;32445;51.376;10.874;2022-11-23T07:52:20;9.48;;;8.68;;
46713;SDS011;32445;51.376;10.874;2022-11-23T07:55:21;9.70;;;8.65;;
46713;SDS011;32445;51.376;10.874;2022-11-23T07:58:22;8.20;;;7.40;;
46713;SDS011;32445;51.376;10.874;2022-11-23T08:01:22;7.70;;;7.00;;
46713;SDS011;32445;51.376;10.874;2022-11-23T08:04:22;12.80;;;8.15;;
46713;SDS011;32445;51.376;10.874;2022-11-23T08:07:23;9.20;;;8.38;;
46713;SDS011;32445;51.376;10.874;2022-11-23T08:10:23;9.23;;;8.35;;
46713;SDS011;32445;51.376;10.874;2022-11-23T08:13:25;12.35;;;9.43;;
46713;SDS011;32445;51.376;10.874;2022-11-23T08:16:25;17.08;;;11.23;;
46713;SDS011;32445;51.376;10.874;2022-11-23T08:19:25;11.95;;;10.77;;
46713;SDS011;32445;51.376;10.874;2022-11-23T08:22:26;20.80;;;12.65;;
46713;SDS011;32445;51.376;10.874;2022-11-23T08:25:27;13.43;;;11.48;;
46713;SDS011;32445;51.376;10.874;2022-11-23T08:28:28;13.60;;;11.98;;
46713;SDS011;32445;51.376;10.874;2022-11-23T08:31:28;14.40;;;11.90;;
46713;SDS011;32445;51.376;10.874;2022-11-23T08:34:29;18.42;;;13.57;;
46713;SDS011;32445;51.376;10.874;2022-11-23T08:37:29;16.35;;;12.35;;
46713;SDS011;32445;51.376;10.874;2022-11-23T08:40:29;21.75;;;17.40;;
46713;SDS011;32445;51.376;10.874;2022-11-23T08:43:30;16.25;;;13.05;;
46713;SDS011;32445;51.376;10.874;2022-11-23T08:46:30;20.00;;;16.52;;
46713;SDS011;32445;51.376;10.874;2022-11-23T08:49:31;16.30;;;13.25;;
46713;SDS011;32445;51.376;10.874;2022-11-23T08:52:31;18.20;;;14.30;;
46713;SDS011;32445;51.376;10.874;2022-11-23T08:55:31;14.93;;;13.27;;
46713;SDS011;32445;51.376;10.874;2022-11-23T08:58:32;17.40;;;13.60;;
46713;SDS011;32445;51.376;10.874;2022-11-23T09:01:33;13.65;;;11.93;;
46713;SDS011;32445;51.376;10.874;2022-11-23T09:04:33;22.63;;;15.00;;
46713;SDS011;32445;51.376;10.874;2022-11-23T09:07:33;31.77;;;24.73;;
46713;SDS011;32445;51.376;10.874;2022-11-23T09:10:34;27.13;;;19.38;;
46713;SDS011;32445;51.376;10.874;2022-11-23T09:13:35;22.93;;;14.23;;
46713;SDS011;32445;51.376;10.874;2022-11-23T09:16:36;22.83;;;18.27;;
46713;SDS011;32445;51.376;10.874;2022-11-23T09:19:36;16.15;;;12.05;;
46713;SDS011;32445;51.376;10.874;2022-11-23T09:22:36;28.65;;;20.60;;
46713;SDS011;32445;51.376;10.874;2022-11-23T09:25:37;11.55;;;8.48;;
46713;SDS011;32445;51.376;10.874;2022-11-23T09:28:37;10.55;;;7.05;;
46713;SDS011;32445;51.376;10.874;2022-11-23T09:31:37;10.38;;;8.50;;
46713;SDS011;32445;51.376;10.874;2022-11-23T09:34:38;16.23;;;10.43;;
46713;SDS011;32445;51.376;10.874;2022-11-23T09:37:38;11.82;;;10.70;;
46713;SDS011;32445;51.376;10.874;2022-11-23T09:40:39;11.32;;;9.60;;
46713;SDS011;32445;51.376;10.874;2022-11-23T09:47:08;10.60;;;8.43;;
46713;SDS011;32445;51.376;10.874;2022-11-23T09:53:51;12.98;;;9.25;;
46713;SDS011;32445;51.376;10.874;2022-11-23T09:56:53;9.25;;;8.27;;
46713;SDS011;32445;51.376;10.874;2022-11-23T10:00:00;8.57;;;5.55;;
46713;SDS011;32445;51.376;10.874;2022-11-23T10:03:04;9.80;;;5.80;;
46713;SDS011;32445;51.376;10.874;2022-11-23T10:26:09;6.07;;;4.05;;
46713;SDS011;32445;51.376;10.874;2022-11-23T10:29:15;5.45;;;4.07;;
46713;SDS011;32445;51.376;10.874;2022-11-23T10:35:33;5.40;;;3.38;;
46713;SDS011;32445;51.376;10.874;2022-11-23T10:38:34;5.03;;;2.33;;
46713;SDS011;32445;51.376;10.874;2022-11-23T10:41:34;2.75;;;2.45;;
46713;SDS011;32445;51.376;10.874;2022-11-23T10:44:35;14.20;;;3.45;;
46713;SDS011;32445;51.376;10.874;2022-11-23T10:50:39;7.00;;;2.47;;
46713;SDS011;32445;51.376;10.874;2022-11-23T10:53:40;5.55;;;2.40;;
46713;SDS011;32445;51.376;10.874;2022-11-23T10:56:44;5.28;;;2.45;;
46713;SDS011;32445;51.376;10.874;2022-11-23T10:59:55;8.23;;;2.65;;
46713;SDS011;32445;51.376;10.874;2022-11-23T11:03:00;5.05;;;2.47;;
46713;SDS011;32445;51.376;10.874;2022-11-23T11:06:23;5.60;;;3.03;;
46713;SDS011;32445;51.376;10.874;2022-11-23T11:09:28;9.45;;;3.00;;
46713;SDS011;32445;51.376;10.874;2022-11-23T11:12:31;8.40;;;2.60;;
46713;SDS011;32445;51.376;10.874;2022-11-23T11:15:33;4.88;;;2.50;;
46713;SDS011;32445;51.376;10.874;2022-11-23T11:18:36;2.92;;;1.90;;
46713;SDS011;32445;51.376;10.874;2022-11-23T11:21:39;7.57;;;2.80;;
46713;SDS011;32445;51.376;10.874;2022-11-23T11:24:44;4.80;;;2.70;;
46713;SDS011;32445;51.376;10.874;2022-11-23T11:27:49;3.15;;;2.28;;
46713;SDS011;32445;51.376;10.874;2022-11-23T11:30:55;5.30;;;2.33;;
46713;SDS011;32445;51.376;10.874;2022-11-23T11:34:16;3.58;;;2.63;;
46713;SDS011;32445;51.376;10.874;2022-11-23T11:37:32;6.70;;;2.70;;
46713;SDS011;32445;51.376;10.874;2022-11-23T11:40:43;5.78;;;2.47;;
46713;SDS011;32445;51.376;10.874;2022-11-23T11:43:52;6.15;;;2.42;;
46713;SDS011;32445;51.376;10.874;2022-11-23T11:47:12;6.93;;;2.40;;
46713;SDS011;32445;51.376;10.874;2022-11-23T11:50:35;3.17;;;2.38;;
46713;SDS011;32445;51.376;10.874;2022-11-23T11:57:29;4.63;;;2.15;;
46713;SDS011;32445;51.376;10.874;2022-11-23T12:00:35;4.95;;;3.58;;
46713;SDS011;32445;51.376;10.874;2022-11-23T12:06:47;4.68;;;1.75;;
46713;SDS011;32445;51.376;10.874;2022-11-23T12:09:55;9.18;;;2.03;;
46713;SDS011;32445;51.376;10.874;2022-11-23T12:13:08;8.65;;;2.30;;
46713;SDS011;32445;51.376;10.874;2022-11-23T12:16:27;8.10;;;2.70;;
46713;SDS011;32445;51.376;10.874;2022-11-23T12:19:32;5.05;;;2.22;;
46713;SDS011;32445;51.376;10.874;2022-11-23T12:22:55;6.80;;;2.22;;
46713;SDS011;32445;51.376;10.874;2022-11-23T12:42:02;9.65;;;2.55;;
46713;SDS011;32445;51.376;10.874;2022-11-23T12:45:17;3.00;;;1.75;;
46713;SDS011;32445;51.376;10.874;2022-11-23T12:48:52;8.95;;;2.25;;
46713;SDS011;32445;51.376;10.874;2022-11-23T12:55:19;3.42;;;2.00;;
46713;SDS011;32445;51.376;10.874;2022-11-23T12:58:29;6.72;;;2.60;;
46713;SDS011;32445;51.376;10.874;2022-11-23T13:01:35;5.97;;;2.35;;
46713;SDS011;32445;51.376;10.874;2022-11-23T13:14:39;8.18;;;1.90;;
46713;SDS011;32445;51.376;10.874;2022-11-23T13:24:28;7.55;;;1.92;;
46713;SDS011;32445;51.376;10.874;2022-11-23T13:27:39;8.02;;;3.05;;
46713;SDS011;32445;51.376;10.874;2022-11-23T13:30:42;11.52;;;2.78;;
46713;SDS011;32445;51.376;10.874;2022-11-23T13:33:43;3.67;;;2.55;;
46713;SDS011;32445;51.376;10.874;2022-11-23T13:36:57;6.63;;;2.60;;
46713;SDS011;32445;51.376;10.874;2022-11-23T13:39:59;4.00;;;2.60;;
46713;SDS011;32445;51.376;10.874;2022-11-23T13:43:48;9.57;;;5.07;;
46713;SDS011;32445;51.376;10.874;2022-11-23T13:46:35;6.10;;;3.30;;
46713;SDS011;32445;51.376;10.874;2022-11-23T13:52:48;19.65;;;11.85;;
46713;SDS011;32445;51.376;10.874;2022-11-23T13:55:50;8.57;;;5.22;;
46713;SDS011;32445;51.376;10.874;2022-11-23T14:05:28;6.75;;;3.63;;
46713;SDS011;32445;51.376;10.874;2022-11-23T14:08:30;10.25;;;7.75;;
46713;SDS011;32445;51.376;10.874;2022-11-23T14:11:39;6.30;;;3.28;;
46713;SDS011;32445;51.376;10.874;2022-11-23T14:21:41;21.73;;;4.72;;
46713;SDS011;32445;51.376;10.874;2022-11-23T14:41:41;19.27;;;17.33;;
46713;SDS011;32445;51.376;10.874;2022-11-23T14:44:49;23.10;;;20.70;;
46713;SDS011;32445;51.376;10.874;2022-11-23T14:47:51;11.63;;;7.07;;
46713;SDS011;32445;51.376;10.874;2022-11-23T14:50:55;8.77;;;4.93;;
46713;SDS011;32445;51.376;10.874;2022-11-23T14:54:01;167.65;;;99.22;;
46713;SDS011;32445;51.376;10.874;2022-11-23T14:57:10;231.52;;;123.60;;
46713;SDS011;32445;51.376;10.874;2022-11-23T15:00:34;32.75;;;20.88;;
46713;SDS011;32445;51.376;10.874;2022-11-23T15:03:37;19.42;;;10.25;;
46713;SDS011;32445;51.376;10.874;2022-11-23T15:06:40;9.35;;;6.65;;
46713;SDS011;32445;51.376;10.874;2022-11-23T15:12:54;13.60;;;7.95;;
46713;SDS011;32445;51.376;10.874;2022-11-23T15:15:55;11.20;;;5.03;;
46713;SDS011;32445;51.376;10.874;2022-11-23T15:18:57;7.65;;;4.15;;
46713;SDS011;32445;51.376;10.874;2022-11-23T15:21:57;8.88;;;4.45;;
46713;SDS011;32445;51.376;10.874;2022-11-23T15:25:05;6.15;;;3.15;;
46713;SDS011;32445;51.376;10.874;2022-11-23T15:28:15;4.18;;;3.42;;
46713;SDS011;32445;51.376;10.874;2022-11-23T15:34:21;4.25;;;2.92;;
46713;SDS011;32445;51.376;10.874;2022-11-23T15:37:22;9.80;;;6.97;;
46713;SDS011;32445;51.376;10.874;2022-11-23T15:40:26;6.22;;;4.18;;
46713;SDS011;32445;51.376;10.874;2022-11-23T15:43:30;6.88;;;3.90;;
46713;SDS011;32445;51.376;10.874;2022-11-23T15:46:33;3.85;;;2.90;;
46713;SDS011;32445;51.376;10.874;2022-11-23T15:49:36;5.70;;;4.82;;
46713;SDS011;32445;51.376;10.874;2022-11-23T15:52:38;11.15;;;5.18;;
46713;SDS011;32445;51.376;10.874;2022-11-23T15:55:41;4.10;;;3.50;;
46713;SDS011;32445;51.376;10.874;2022-11-23T15:58:44;5.88;;;4.25;;
46713;SDS011;32445;51.376;10.874;2022-11-23T16:01:46;5.88;;;3.28;;
46713;SDS011;32445;51.376;10.874;2022-11-23T16:04:47;6.38;;;3.88;;
46713;SDS011;32445;51.376;10.874;2022-11-23T16:10:56;5.18;;;3.40;;
46713;SDS011;32445;51.376;10.874;2022-11-23T16:14:16;7.72;;;4.43;;
46713;SDS011;32445;51.376;10.874;2022-11-23T16:17:25;4.13;;;3.40;;
46713;SDS011;32445;51.376;10.874;2022-11-23T16:20:26;4.50;;;3.13;;
46713;SDS011;32445;51.376;10.874;2022-11-23T16:26:50;5.35;;;4.85;;
46713;SDS011;32445;51.376;10.874;2022-11-23T16:29:51;6.27;;;3.73;;
46713;SDS011;32445;51.376;10.874;2022-11-23T16:32:52;3.35;;;3.05;;
46713;SDS011;32445;51.376;10.874;2022-11-23T16:35:52;4.80;;;3.28;;
46713;SDS011;32445;51.376;10.874;2022-11-23T16:38:54;7.10;;;3.35;;
46713;SDS011;32445;51.376;10.874;2022-11-23T16:41:55;4.40;;;4.00;;
46713;SDS011;32445;51.376;10.874;2022-11-23T16:44:55;5.68;;;3.67;;
46713;SDS011;32445;51.376;10.874;2022-11-23T16:47:57;4.53;;;3.53;;
46713;SDS011;32445;51.376;10.874;2022-11-23T16:50:59;6.00;;;4.47;;
46713;SDS011;32445;51.376;10.874;2022-11-23T16:53:59;4.40;;;4.00;;
46713;SDS011;32445;51.376;10.874;2022-11-23T16:57:00;4.32;;;3.92;;
46713;SDS011;32445;51.376;10.874;2022-11-23T17:00:01;4.85;;;4.22;;
46713;SDS011;32445;51.376;10.874;2022-11-23T17:03:03;6.93;;;4.20;;
46713;SDS011;32445;51.376;10.874;2022-11-23T17:06:04;6.45;;;4.55;;
46713;SDS011;32445;51.376;10.874;2022-11-23T17:09:04;9.02;;;5.90;;
46713;SDS011;32445;51.376;10.874;2022-11-23T17:12:06;28.33;;;6.25;;
46713;SDS011;32445;51.376;10.874;2022-11-23T17:15:13;9.27;;;7.65;;
46713;SDS011;32445;51.376;10.874;2022-11-23T17:18:15;7.43;;;6.72;;
46713;SDS011;32445;51.376;10.874;2022-11-23T17:21:16;7.22;;;5.82;;
46713;SDS011;32445;51.376;10.874;2022-11-23T17:24:16;7.78;;;6.22;;
46713;SDS011;32445;51.376;10.874;2022-11-23T17:27:19;7.78;;;6.63;;
46713;SDS011;32445;51.376;10.874;2022-11-23T17:30:22;9.23;;;7.53;;
46713;SDS011;32445;51.376;10.874;2022-11-23T17:33:23;9.43;;;7.68;;
46713;SDS011;32445;51.376;10.874;2022-11-23T17:36:24;7.90;;;7.00;;
46713;SDS011;32445;51.376;10.874;2022-11-23T17:39:25;7.30;;;6.05;;
46713;SDS011;32445;51.376;10.874;2022-11-23T17:45:27;7.15;;;6.25;;
46713;SDS011;32445;51.376;10.874;2022-11-23T17:48:28;8.63;;;6.93;;
46713;SDS011;32445;51.376;10.874;2022-11-23T17:51:29;8.68;;;7.80;;
46713;SDS011;32445;51.376;10.874;2022-11-23T17:54:29;12.32;;;8.02;;
46713;SDS011;32445;51.376;10.874;2022-11-23T17:57:30;7.63;;;6.95;;
46713;SDS011;32445;51.376;10.874;2022-11-23T18:00:30;7.38;;;6.70;;
46713;SDS011;32445;51.376;10.874;2022-11-23T18:03:31;8.52;;;6.97;;
46713;SDS011;32445;51.376;10.874;2022-11-23T18:06:32;10.38;;;7.60;;
46713;SDS011;32445;51.376;10.874;2022-11-23T18:09:32;7.60;;;7.00;;
46713;SDS011;32445;51.376;10.874;2022-11-23T18:12:33;9.95;;;8.20;;
46713;SDS011;32445;51.376;10.874;2022-11-23T18:15:33;8.32;;;7.50;;
46713;SDS011;32445;51.376;10.874;2022-11-23T18:18:34;11.90;;;8.20;;
46713;SDS011;32445;51.376;10.874;2022-11-23T18:21:35;10.43;;;7.23;;
46713;SDS011;32445;51.376;10.874;2022-11-23T18:24:35;12.52;;;8.50;;
46713;SDS011;32445;51.376;10.874;2022-11-23T18:27:39;52.15;;;32.33;;
46713;SDS011;32445;51.376;10.874;2022-11-23T18:30:39;17.02;;;12.07;;
46713;SDS011;32445;51.376;10.874;2022-11-23T18:33:39;9.75;;;8.55;;
46713;SDS011;32445;51.376;10.874;2022-11-23T18:36:40;8.88;;;8.02;;
46713;SDS011;32445;51.376;10.874;2022-11-23T18:39:43;14.95;;;10.57;;
46713;SDS011;32445;51.376;10.874;2022-11-23T18:42:43;11.07;;;8.98;;
46713;SDS011;32445;51.376;10.874;2022-11-23T18:45:44;14.55;;;10.15;;
46713;SDS011;32445;51.376;10.874;2022-11-23T18:48:45;19.17;;;13.30;;
46713;SDS011;32445;51.376;10.874;2022-11-23T18:51:46;19.08;;;13.98;;
46713;SDS011;32445;51.376;10.874;2022-11-23T18:54:46;16.73;;;15.20;;
46713;SDS011;32445;51.376;10.874;2022-11-23T18:58:09;15.60;;;13.95;;
46713;SDS011;32445;51.376;10.874;2022-11-23T19:01:11;16.38;;;14.95;;
46713;SDS011;32445;51.376;10.874;2022-11-23T19:04:18;15.23;;;13.65;;
46713;SDS011;32445;51.376;10.874;2022-11-23T19:07:18;15.85;;;14.18;;
46713;SDS011;32445;51.376;10.874;2022-11-23T19:10:19;14.43;;;13.07;;
46713;SDS011;32445;51.376;10.874;2022-11-23T19:13:20;13.68;;;12.43;;
46713;SDS011;32445;51.376;10.874;2022-11-23T19:16:21;14.70;;;13.15;;
46713;SDS011;32445;51.376;10.874;2022-11-23T19:19:27;16.33;;;13.35;;
46713;SDS011;32445;51.376;10.874;2022-11-23T19:22:28;13.85;;;12.45;;
46713;SDS011;32445;51.376;10.874;2022-11-23T19:25:28;15.43;;;12.60;;
46713;SDS011;32445;51.376;10.874;2022-11-23T19:28:31;15.52;;;13.05;;
46713;SDS011;32445;51.376;10.874;2022-11-23T19:31:32;15.50;;;14.07;;
46713;SDS011;32445;51.376;10.874;2022-11-23T19:34:32;16.90;;;14.60;;
46713;SDS011;32445;51.376;10.874;2022-11-23T19:37:34;15.27;;;13.73;;
46713;SDS011;32445;51.376;10.874;2022-11-23T19:40:36;14.30;;;12.82;;
46713;SDS011;32445;51.376;10.874;2022-11-23T19:43:36;12.38;;;11.38;;
46713;SDS011;32445;51.376;10.874;2022-11-23T19:46:37;17.67;;;12.60;;
46713;SDS011;32445;51.376;10.874;2022-11-23T19:49:37;14.45;;;13.10;;
46713;SDS011;32445;51.376;10.874;2022-11-23T19:52:37;13.07;;;11.90;;
46713;SDS011;32445;51.376;10.874;2022-11-23T19:55:38;17.70;;;15.75;;
46713;SDS011;32445;51.376;10.874;2022-11-23T19:58:38;14.32;;;12.95;;
46713;SDS011;32445;51.376;10.874;2022-11-23T20:01:40;14.57;;;13.15;;
46713;SDS011;32445;51.376;10.874;2022-11-23T20:04:40;12.38;;;11.48;;
46713;SDS011;32445;51.376;10.874;2022-11-23T20:07:44;11.98;;;10.80;;
46713;SDS011;32445;51.376;10.874;2022-11-23T20:10:44;12.23;;;10.98;;